sensor_id;sensor_type;location;lat;lon;timestamp;temperature;humidity
21481;DHT22;10902;48.158;8.634;2024-03-29T00:02:43;3.80;99.90
21481;DHT22;10902;48.158;8.634;2024-03-29T00:05:29;3.90;99.90
21481;DHT22;10902;48.158;8.634;2024-03-29T00:08:15;4.00;99.90
21481;DHT22;10902;48.158;8.634;2024-03-29T00:11:00;4.10;99.90
21481;DHT22;10902;48.158;8.634;2024-03-29T00:13:46;4.00;99.90
21481;DHT22;10902;48.158;8.634;2024-03-29T00:16:31;3.90;99.90
21481;DHT22;10902;48.158;8.634;2024-03-29T00:19:17;3.70;99.90
21481;DHT22;10902;48.158;8.634;2024-03-29T00:22:03;3.60;99.90
21481;DHT22;10902;48.158;8.634;2024-03-29T00:24:48;3.40;99.90
21481;DHT22;10902;48.158;8.634;2024-03-29T00:27:34;3.40;99.90
21481;DHT22;10902;48.158;8.634;2024-03-29T00:30:19;3.20;99.90
21481;DHT22;10902;48.158;8.634;2024-03-29T00:33:05;3.30;99.90
21481;DHT22;10902;48.158;8.634;2024-03-29T00:35:51;3.20;99.90
21481;DHT22;10902;48.158;8.634;2024-03-29T00:38:36;2.90;99.90
21481;DHT22;10902;48.158;8.634;2024-03-29T00:41:22;2.60;99.90
21481;DHT22;10902;48.158;8.634;2024-03-29T00:44:07;2.50;99.90
21481;DHT22;10902;48.158;8.634;2024-03-29T00:46:53;2.50;99.90
21481;DHT22;10902;48.158;8.634;2024-03-29T00:49:39;2.50;99.90
21481;DHT22;10902;48.158;8.634;2024-03-29T00:52:25;2.50;99.90
21481;DHT22;10902;48.158;8.634;2024-03-29T00:55:10;2.50;99.90
21481;DHT22;10902;48.158;8.634;2024-03-29T00:57:56;2.70;99.90
21481;DHT22;10902;48.158;8.634;2024-03-29T01:00:41;2.70;99.90
21481;DHT22;10902;48.158;8.634;2024-03-29T01:03:27;2.60;99.90
21481;DHT22;10902;48.158;8.634;2024-03-29T01:06:16;2.60;99.90
21481;DHT22;10902;48.158;8.634;2024-03-29T01:09:02;2.90;99.90
21481;DHT22;10902;48.158;8.634;2024-03-29T01:11:50;3.20;99.90
21481;DHT22;10902;48.158;8.634;2024-03-29T01:14:35;3.30;99.90
21481;DHT22;10902;48.158;8.634;2024-03-29T01:17:21;3.30;99.90
21481;DHT22;10902;48.158;8.634;2024-03-29T01:20:07;3.20;99.90
21481;DHT22;10902;48.158;8.634;2024-03-29T01:22:54;3.20;99.90
21481;DHT22;10902;48.158;8.634;2024-03-29T01:25:40;3.10;99.90
21481;DHT22;10902;48.158;8.634;2024-03-29T01:28:26;3.20;99.90
21481;DHT22;10902;48.158;8.634;2024-03-29T01:31:12;3.30;99.90
21481;DHT22;10902;48.158;8.634;2024-03-29T01:33:57;3.50;99.90
21481;DHT22;10902;48.158;8.634;2024-03-29T01:36:43;3.50;99.90
21481;DHT22;10902;48.158;8.634;2024-03-29T01:39:29;3.50;99.90
21481;DHT22;10902;48.158;8.634;2024-03-29T01:42:17;3.60;99.90
21481;DHT22;10902;48.158;8.634;2024-03-29T01:45:04;3.80;99.90
21481;DHT22;10902;48.158;8.634;2024-03-29T01:47:49;3.90;99.90
21481;DHT22;10902;48.158;8.634;2024-03-29T01:50:36;3.90;99.90
21481;DHT22;10902;48.158;8.634;2024-03-29T01:53:22;4.10;99.90
21481;DHT22;10902;48.158;8.634;2024-03-29T01:56:09;4.10;99.90
21481;DHT22;10902;48.158;8.634;2024-03-29T01:58:57;4.00;99.90
21481;DHT22;10902;48.158;8.634;2024-03-29T02:01:45;4.00;99.90
21481;DHT22;10902;48.158;8.634;2024-03-29T02:04:31;3.90;99.90
21481;DHT22;10902;48.158;8.634;2024-03-29T02:07:16;3.90;99.90
21481;DHT22;10902;48.158;8.634;2024-03-29T02:10:03;3.60;99.90
21481;DHT22;10902;48.158;8.634;2024-03-29T02:12:49;3.40;99.90
21481;DHT22;10902;48.158;8.634;2024-03-29T02:15:34;3.50;99.90
21481;DHT22;10902;48.158;8.634;2024-03-29T02:18:20;3.50;99.90
21481;DHT22;10902;48.158;8.634;2024-03-29T02:21:06;3.50;99.90
21481;DHT22;10902;48.158;8.634;2024-03-29T02:24:08;3.40;99.90
21481;DHT22;10902;48.158;8.634;2024-03-29T02:26:56;3.10;99.90
21481;DHT22;10902;48.158;8.634;2024-03-29T02:29:42;2.90;99.90
21481;DHT22;10902;48.158;8.634;2024-03-29T02:32:27;2.80;99.90
21481;DHT22;10902;48.158;8.634;2024-03-29T02:35:13;2.80;99.90
21481;DHT22;10902;48.158;8.634;2024-03-29T02:37:58;3.00;99.90
21481;DHT22;10902;48.158;8.634;2024-03-29T02:40:44;3.10;99.90
21481;DHT22;10902;48.158;8.634;2024-03-29T02:43:30;3.10;99.90
21481;DHT22;10902;48.158;8.634;2024-03-29T02:46:15;3.10;99.90
21481;DHT22;10902;48.158;8.634;2024-03-29T02:49:01;3.00;99.90
21481;DHT22;10902;48.158;8.634;2024-03-29T02:51:46;3.00;99.90
21481;DHT22;10902;48.158;8.634;2024-03-29T02:54:32;3.10;99.90
21481;DHT22;10902;48.158;8.634;2024-03-29T02:57:18;3.40;99.90
21481;DHT22;10902;48.158;8.634;2024-03-29T03:00:07;3.70;99.90
21481;DHT22;10902;48.158;8.634;2024-03-29T03:02:54;3.90;99.90
21481;DHT22;10902;48.158;8.634;2024-03-29T03:05:40;3.80;99.90
21481;DHT22;10902;48.158;8.634;2024-03-29T03:08:25;3.80;99.90
21481;DHT22;10902;48.158;8.634;2024-03-29T03:11:29;3.80;99.90
21481;DHT22;10902;48.158;8.634;2024-03-29T03:14:15;4.00;99.90
21481;DHT22;10902;48.158;8.634;2024-03-29T03:17:00;4.10;99.90
21481;DHT22;10902;48.158;8.634;2024-03-29T03:19:46;4.10;99.90
21481;DHT22;10902;48.158;8.634;2024-03-29T03:22:31;3.90;99.90
21481;DHT22;10902;48.158;8.634;2024-03-29T03:25:17;3.70;99.90
21481;DHT22;10902;48.158;8.634;2024-03-29T03:28:03;3.70;99.90
21481;DHT22;10902;48.158;8.634;2024-03-29T03:30:49;4.00;99.90
21481;DHT22;10902;48.158;8.634;2024-03-29T03:33:35;4.10;99.90
21481;DHT22;10902;48.158;8.634;2024-03-29T03:36:20;4.00;99.90
21481;DHT22;10902;48.158;8.634;2024-03-29T03:39:06;3.90;99.90
21481;DHT22;10902;48.158;8.634;2024-03-29T03:41:52;3.70;99.90
21481;DHT22;10902;48.158;8.634;2024-03-29T03:44:37;3.70;99.90
21481;DHT22;10902;48.158;8.634;2024-03-29T03:47:23;3.60;99.90
21481;DHT22;10902;48.158;8.634;2024-03-29T03:50:09;3.30;99.90
21481;DHT22;10902;48.158;8.634;2024-03-29T03:52:54;3.30;99.90
21481;DHT22;10902;48.158;8.634;2024-03-29T03:55:40;3.40;99.90
21481;DHT22;10902;48.158;8.634;2024-03-29T03:58:25;3.60;99.90
21481;DHT22;10902;48.158;8.634;2024-03-29T04:01:11;3.80;99.90
21481;DHT22;10902;48.158;8.634;2024-03-29T04:03:57;4.00;99.90
21481;DHT22;10902;48.158;8.634;2024-03-29T04:06:42;4.10;99.90
21481;DHT22;10902;48.158;8.634;2024-03-29T04:09:28;3.90;99.90
21481;DHT22;10902;48.158;8.634;2024-03-29T04:12:14;3.80;99.90
21481;DHT22;10902;48.158;8.634;2024-03-29T04:15:00;3.70;99.90
21481;DHT22;10902;48.158;8.634;2024-03-29T04:17:45;3.70;99.90
21481;DHT22;10902;48.158;8.634;2024-03-29T04:20:31;3.60;99.90
21481;DHT22;10902;48.158;8.634;2024-03-29T04:23:17;3.50;99.90
21481;DHT22;10902;48.158;8.634;2024-03-29T04:26:03;3.50;99.90
21481;DHT22;10902;48.158;8.634;2024-03-29T04:28:48;3.60;99.90
21481;DHT22;10902;48.158;8.634;2024-03-29T04:31:34;3.90;99.90
21481;DHT22;10902;48.158;8.634;2024-03-29T04:34:20;4.20;99.90
21481;DHT22;10902;48.158;8.634;2024-03-29T04:37:05;4.40;99.90
21481;DHT22;10902;48.158;8.634;2024-03-29T04:39:51;4.10;99.90
21481;DHT22;10902;48.158;8.634;2024-03-29T04:42:36;3.90;99.90
21481;DHT22;10902;48.158;8.634;2024-03-29T04:45:22;3.80;99.90
21481;DHT22;10902;48.158;8.634;2024-03-29T04:48:07;3.90;99.90
21481;DHT22;10902;48.158;8.634;2024-03-29T04:50:53;4.10;99.90
21481;DHT22;10902;48.158;8.634;2024-03-29T04:53:39;4.30;99.90
21481;DHT22;10902;48.158;8.634;2024-03-29T04:56:25;4.50;99.90
21481;DHT22;10902;48.158;8.634;2024-03-29T04:59:10;4.60;99.90
21481;DHT22;10902;48.158;8.634;2024-03-29T05:01:56;4.70;99.90
21481;DHT22;10902;48.158;8.634;2024-03-29T05:04:42;4.70;99.90
21481;DHT22;10902;48.158;8.634;2024-03-29T05:07:28;4.70;99.90
21481;DHT22;10902;48.158;8.634;2024-03-29T05:10:14;4.60;99.90
21481;DHT22;10902;48.158;8.634;2024-03-29T05:13:01;4.50;99.90
21481;DHT22;10902;48.158;8.634;2024-03-29T05:15:47;4.50;99.90
21481;DHT22;10902;48.158;8.634;2024-03-29T05:18:33;4.50;99.90
21481;DHT22;10902;48.158;8.634;2024-03-29T05:21:18;4.50;99.90
21481;DHT22;10902;48.158;8.634;2024-03-29T05:24:05;4.40;99.90
21481;DHT22;10902;48.158;8.634;2024-03-29T05:26:50;4.30;99.90
21481;DHT22;10902;48.158;8.634;2024-03-29T05:29:36;4.10;99.90
21481;DHT22;10902;48.158;8.634;2024-03-29T05:32:22;4.00;99.90
21481;DHT22;10902;48.158;8.634;2024-03-29T05:35:07;3.80;99.90
21481;DHT22;10902;48.158;8.634;2024-03-29T05:37:54;3.70;99.90
21481;DHT22;10902;48.158;8.634;2024-03-29T05:40:40;3.80;99.90
21481;DHT22;10902;48.158;8.634;2024-03-29T05:43:25;3.70;99.90
21481;DHT22;10902;48.158;8.634;2024-03-29T05:46:11;3.80;99.90
21481;DHT22;10902;48.158;8.634;2024-03-29T05:48:56;4.00;99.90
21481;DHT22;10902;48.158;8.634;2024-03-29T05:51:42;4.10;99.90
21481;DHT22;10902;48.158;8.634;2024-03-29T05:54:28;4.20;99.90
21481;DHT22;10902;48.158;8.634;2024-03-29T05:57:13;4.40;99.90
21481;DHT22;10902;48.158;8.634;2024-03-29T05:59:59;4.40;99.90
21481;DHT22;10902;48.158;8.634;2024-03-29T06:02:45;4.70;99.90
21481;DHT22;10902;48.158;8.634;2024-03-29T06:05:30;4.70;99.90
21481;DHT22;10902;48.158;8.634;2024-03-29T06:08:16;5.00;99.90
21481;DHT22;10902;48.158;8.634;2024-03-29T06:11:02;5.20;99.90
21481;DHT22;10902;48.158;8.634;2024-03-29T06:13:47;5.40;99.90
21481;DHT22;10902;48.158;8.634;2024-03-29T06:16:39;5.70;99.90
21481;DHT22;10902;48.158;8.634;2024-03-29T06:19:43;5.70;99.90
21481;DHT22;10902;48.158;8.634;2024-03-29T06:22:28;5.80;99.90
21481;DHT22;10902;48.158;8.634;2024-03-29T06:25:17;6.00;99.90
21481;DHT22;10902;48.158;8.634;2024-03-29T06:28:03;6.10;99.90
21481;DHT22;10902;48.158;8.634;2024-03-29T06:30:48;6.10;99.90
21481;DHT22;10902;48.158;8.634;2024-03-29T06:33:34;6.10;99.90
21481;DHT22;10902;48.158;8.634;2024-03-29T06:36:20;6.20;99.90
21481;DHT22;10902;48.158;8.634;2024-03-29T06:39:05;6.10;99.90
21481;DHT22;10902;48.158;8.634;2024-03-29T06:41:51;6.20;99.90
21481;DHT22;10902;48.158;8.634;2024-03-29T06:44:37;6.20;99.90
21481;DHT22;10902;48.158;8.634;2024-03-29T06:47:22;6.40;99.90
21481;DHT22;10902;48.158;8.634;2024-03-29T06:50:08;6.30;99.90
21481;DHT22;10902;48.158;8.634;2024-03-29T06:52:54;6.30;99.90
21481;DHT22;10902;48.158;8.634;2024-03-29T06:55:40;6.30;99.90
21481;DHT22;10902;48.158;8.634;2024-03-29T06:58:26;6.30;99.90
21481;DHT22;10902;48.158;8.634;2024-03-29T07:01:11;6.20;99.90
21481;DHT22;10902;48.158;8.634;2024-03-29T07:03:57;6.10;99.90
21481;DHT22;10902;48.158;8.634;2024-03-29T07:06:42;6.20;99.90
21481;DHT22;10902;48.158;8.634;2024-03-29T07:09:32;6.20;99.90
21481;DHT22;10902;48.158;8.634;2024-03-29T07:12:18;6.00;99.90
21481;DHT22;10902;48.158;8.634;2024-03-29T07:15:04;5.70;99.90
21481;DHT22;10902;48.158;8.634;2024-03-29T07:17:50;5.70;99.90
21481;DHT22;10902;48.158;8.634;2024-03-29T07:20:36;5.70;99.90
21481;DHT22;10902;48.158;8.634;2024-03-29T07:23:21;6.00;99.90
21481;DHT22;10902;48.158;8.634;2024-03-29T07:26:07;6.00;99.90
21481;DHT22;10902;48.158;8.634;2024-03-29T07:28:52;6.00;99.90
21481;DHT22;10902;48.158;8.634;2024-03-29T07:31:38;5.90;99.90
21481;DHT22;10902;48.158;8.634;2024-03-29T07:34:24;5.70;99.90
21481;DHT22;10902;48.158;8.634;2024-03-29T07:37:09;5.70;99.90
21481;DHT22;10902;48.158;8.634;2024-03-29T07:40:00;5.70;99.90
21481;DHT22;10902;48.158;8.634;2024-03-29T07:42:46;5.80;99.90
21481;DHT22;10902;48.158;8.634;2024-03-29T07:45:31;5.90;99.90
21481;DHT22;10902;48.158;8.634;2024-03-29T07:48:17;6.00;99.90
21481;DHT22;10902;48.158;8.634;2024-03-29T07:51:03;6.00;99.90
21481;DHT22;10902;48.158;8.634;2024-03-29T07:53:49;6.20;99.90
21481;DHT22;10902;48.158;8.634;2024-03-29T07:56:34;6.40;99.90
21481;DHT22;10902;48.158;8.634;2024-03-29T07:59:20;6.60;99.90
21481;DHT22;10902;48.158;8.634;2024-03-29T08:02:05;7.00;99.90
21481;DHT22;10902;48.158;8.634;2024-03-29T08:04:52;7.20;99.90
21481;DHT22;10902;48.158;8.634;2024-03-29T08:07:38;7.10;99.90
21481;DHT22;10902;48.158;8.634;2024-03-29T08:10:23;7.20;99.90
21481;DHT22;10902;48.158;8.634;2024-03-29T08:13:09;7.40;99.90
21481;DHT22;10902;48.158;8.634;2024-03-29T08:16:01;7.80;99.90
21481;DHT22;10902;48.158;8.634;2024-03-29T08:18:47;8.20;99.90
21481;DHT22;10902;48.158;8.634;2024-03-29T08:21:33;8.40;99.90
21481;DHT22;10902;48.158;8.634;2024-03-29T08:24:19;8.40;99.90
21481;DHT22;10902;48.158;8.634;2024-03-29T08:27:04;8.30;99.90
21481;DHT22;10902;48.158;8.634;2024-03-29T08:29:50;8.00;99.90
21481;DHT22;10902;48.158;8.634;2024-03-29T08:32:36;8.00;99.90
21481;DHT22;10902;48.158;8.634;2024-03-29T08:35:21;8.00;99.90
21481;DHT22;10902;48.158;8.634;2024-03-29T08:38:07;8.20;99.90
21481;DHT22;10902;48.158;8.634;2024-03-29T08:40:52;8.50;99.90
21481;DHT22;10902;48.158;8.634;2024-03-29T08:43:38;8.90;99.90
21481;DHT22;10902;48.158;8.634;2024-03-29T08:46:24;9.00;99.90
21481;DHT22;10902;48.158;8.634;2024-03-29T08:49:09;9.30;99.90
21481;DHT22;10902;48.158;8.634;2024-03-29T08:51:56;9.40;99.90
21481;DHT22;10902;48.158;8.634;2024-03-29T08:54:42;9.60;99.90
21481;DHT22;10902;48.158;8.634;2024-03-29T08:57:28;9.70;99.90
21481;DHT22;10902;48.158;8.634;2024-03-29T09:00:14;9.90;99.90
21481;DHT22;10902;48.158;8.634;2024-03-29T09:02:59;10.10;99.90
21481;DHT22;10902;48.158;8.634;2024-03-29T09:05:47;10.30;99.90
21481;DHT22;10902;48.158;8.634;2024-03-29T09:08:32;9.80;99.90
21481;DHT22;10902;48.158;8.634;2024-03-29T09:11:18;10.10;99.90
21481;DHT22;10902;48.158;8.634;2024-03-29T09:14:04;10.40;99.90
21481;DHT22;10902;48.158;8.634;2024-03-29T09:16:51;10.80;99.90
21481;DHT22;10902;48.158;8.634;2024-03-29T09:19:37;11.10;99.90
21481;DHT22;10902;48.158;8.634;2024-03-29T09:22:23;11.90;99.90
21481;DHT22;10902;48.158;8.634;2024-03-29T09:25:09;12.50;99.90
21481;DHT22;10902;48.158;8.634;2024-03-29T09:27:58;13.10;99.90
21481;DHT22;10902;48.158;8.634;2024-03-29T09:30:44;13.30;99.90
21481;DHT22;10902;48.158;8.634;2024-03-29T09:33:30;13.20;99.90
21481;DHT22;10902;48.158;8.634;2024-03-29T09:36:16;13.20;99.90
21481;DHT22;10902;48.158;8.634;2024-03-29T09:39:01;13.80;99.90
21481;DHT22;10902;48.158;8.634;2024-03-29T09:41:49;14.80;99.90
21481;DHT22;10902;48.158;8.634;2024-03-29T09:44:35;15.50;99.90
21481;DHT22;10902;48.158;8.634;2024-03-29T09:47:22;15.60;99.90
21481;DHT22;10902;48.158;8.634;2024-03-29T09:50:09;14.50;99.90
21481;DHT22;10902;48.158;8.634;2024-03-29T09:52:55;13.90;99.90
21481;DHT22;10902;48.158;8.634;2024-03-29T09:55:41;14.10;99.90
21481;DHT22;10902;48.158;8.634;2024-03-29T09:58:27;13.90;99.90
21481;DHT22;10902;48.158;8.634;2024-03-29T10:01:12;14.30;99.90
21481;DHT22;10902;48.158;8.634;2024-03-29T10:03:59;15.30;99.90
21481;DHT22;10902;48.158;8.634;2024-03-29T10:06:49;15.50;99.90
21481;DHT22;10902;48.158;8.634;2024-03-29T10:09:36;15.30;99.90
21481;DHT22;10902;48.158;8.634;2024-03-29T10:12:21;15.40;99.90
21481;DHT22;10902;48.158;8.634;2024-03-29T10:15:07;15.60;99.90
21481;DHT22;10902;48.158;8.634;2024-03-29T10:18:09;16.00;99.90
21481;DHT22;10902;48.158;8.634;2024-03-29T10:21:05;16.90;99.90
21481;DHT22;10902;48.158;8.634;2024-03-29T10:23:54;17.60;99.90
21481;DHT22;10902;48.158;8.634;2024-03-29T10:26:41;18.30;99.90
21481;DHT22;10902;48.158;8.634;2024-03-29T10:29:31;18.20;99.90
21481;DHT22;10902;48.158;8.634;2024-03-29T10:32:17;18.10;99.90
21481;DHT22;10902;48.158;8.634;2024-03-29T10:35:03;18.30;99.90
21481;DHT22;10902;48.158;8.634;2024-03-29T10:37:49;18.90;99.90
21481;DHT22;10902;48.158;8.634;2024-03-29T10:40:37;19.80;99.90
21481;DHT22;10902;48.158;8.634;2024-03-29T10:43:24;20.10;99.90
21481;DHT22;10902;48.158;8.634;2024-03-29T10:46:10;20.00;99.90
21481;DHT22;10902;48.158;8.634;2024-03-29T10:48:57;19.50;99.90
21481;DHT22;10902;48.158;8.634;2024-03-29T10:51:43;18.90;99.90
21481;DHT22;10902;48.158;8.634;2024-03-29T10:54:29;18.80;99.90
21481;DHT22;10902;48.158;8.634;2024-03-29T10:57:26;19.20;99.90
21481;DHT22;10902;48.158;8.634;2024-03-29T11:00:13;19.40;99.90
21481;DHT22;10902;48.158;8.634;2024-03-29T11:03:32;19.30;99.90
21481;DHT22;10902;48.158;8.634;2024-03-29T11:06:22;19.20;99.90
21481;DHT22;10902;48.158;8.634;2024-03-29T11:09:13;19.00;99.90
21481;DHT22;10902;48.158;8.634;2024-03-29T11:12:01;19.80;99.90
21481;DHT22;10902;48.158;8.634;2024-03-29T11:14:53;19.90;99.90
21481;DHT22;10902;48.158;8.634;2024-03-29T11:17:43;20.30;99.90
21481;DHT22;10902;48.158;8.634;2024-03-29T11:20:29;20.40;99.90
21481;DHT22;10902;48.158;8.634;2024-03-29T11:23:22;20.70;99.90
21481;DHT22;10902;48.158;8.634;2024-03-29T11:26:08;21.70;99.90
21481;DHT22;10902;48.158;8.634;2024-03-29T11:28:54;22.60;99.90
21481;DHT22;10902;48.158;8.634;2024-03-29T11:31:41;22.90;99.90
21481;DHT22;10902;48.158;8.634;2024-03-29T11:34:31;22.80;99.90
21481;DHT22;10902;48.158;8.634;2024-03-29T11:37:17;22.40;99.90
21481;DHT22;10902;48.158;8.634;2024-03-29T11:40:04;22.40;99.90
21481;DHT22;10902;48.158;8.634;2024-03-29T11:42:52;23.20;99.90
21481;DHT22;10902;48.158;8.634;2024-03-29T11:45:38;23.60;99.90
21481;DHT22;10902;48.158;8.634;2024-03-29T11:48:27;23.10;99.90
21481;DHT22;10902;48.158;8.634;2024-03-29T11:51:14;22.60;99.90
21481;DHT22;10902;48.158;8.634;2024-03-29T11:54:01;21.70;99.90
21481;DHT22;10902;48.158;8.634;2024-03-29T11:56:48;22.30;99.90
21481;DHT22;10902;48.158;8.634;2024-03-29T11:59:33;23.20;99.90
21481;DHT22;10902;48.158;8.634;2024-03-29T12:02:19;23.70;99.90
21481;DHT22;10902;48.158;8.634;2024-03-29T12:05:08;22.80;99.90
21481;DHT22;10902;48.158;8.634;2024-03-29T12:07:54;21.90;99.90
21481;DHT22;10902;48.158;8.634;2024-03-29T12:10:40;21.00;99.90
21481;DHT22;10902;48.158;8.634;2024-03-29T12:13:26;20.40;99.90
21481;DHT22;10902;48.158;8.634;2024-03-29T12:16:12;21.10;99.90
21481;DHT22;10902;48.158;8.634;2024-03-29T12:18:58;22.00;99.90
21481;DHT22;10902;48.158;8.634;2024-03-29T12:21:43;22.90;99.90
21481;DHT22;10902;48.158;8.634;2024-03-29T12:24:29;23.60;99.90
21481;DHT22;10902;48.158;8.634;2024-03-29T12:27:15;24.00;99.90
21481;DHT22;10902;48.158;8.634;2024-03-29T12:30:01;24.10;99.90
21481;DHT22;10902;48.158;8.634;2024-03-29T12:32:47;23.90;99.90
21481;DHT22;10902;48.158;8.634;2024-03-29T12:35:33;23.70;99.90
21481;DHT22;10902;48.158;8.634;2024-03-29T12:38:21;22.90;99.90
21481;DHT22;10902;48.158;8.634;2024-03-29T12:41:07;23.30;99.90
21481;DHT22;10902;48.158;8.634;2024-03-29T12:43:52;24.10;99.90
21481;DHT22;10902;48.158;8.634;2024-03-29T12:46:38;23.80;99.90
21481;DHT22;10902;48.158;8.634;2024-03-29T12:49:27;23.70;99.90
21481;DHT22;10902;48.158;8.634;2024-03-29T12:52:13;23.10;99.90
21481;DHT22;10902;48.158;8.634;2024-03-29T12:54:58;23.20;99.90
21481;DHT22;10902;48.158;8.634;2024-03-29T12:57:44;23.70;99.90
21481;DHT22;10902;48.158;8.634;2024-03-29T13:00:36;24.10;99.90
21481;DHT22;10902;48.158;8.634;2024-03-29T13:03:22;24.80;99.90
21481;DHT22;10902;48.158;8.634;2024-03-29T13:06:07;25.80;99.40
21481;DHT22;10902;48.158;8.634;2024-03-29T13:08:53;25.50;97.10
21481;DHT22;10902;48.158;8.634;2024-03-29T13:11:42;26.10;97.70
21481;DHT22;10902;48.158;8.634;2024-03-29T13:14:27;27.20;96.60
21481;DHT22;10902;48.158;8.634;2024-03-29T13:17:13;27.70;95.70
21481;DHT22;10902;48.158;8.634;2024-03-29T13:19:58;28.10;94.50
21481;DHT22;10902;48.158;8.634;2024-03-29T13:22:46;28.70;93.80
21481;DHT22;10902;48.158;8.634;2024-03-29T13:25:32;28.40;92.90
21481;DHT22;10902;48.158;8.634;2024-03-29T13:28:17;28.40;93.20
21481;DHT22;10902;48.158;8.634;2024-03-29T13:31:03;27.40;92.00
21481;DHT22;10902;48.158;8.634;2024-03-29T13:33:49;27.20;91.20
21481;DHT22;10902;48.158;8.634;2024-03-29T13:36:34;27.70;92.60
21481;DHT22;10902;48.158;8.634;2024-03-29T13:39:20;27.00;91.70
21481;DHT22;10902;48.158;8.634;2024-03-29T13:42:08;27.00;92.00
21481;DHT22;10902;48.158;8.634;2024-03-29T13:44:54;26.90;92.00
21481;DHT22;10902;48.158;8.634;2024-03-29T13:47:42;26.40;92.00
21481;DHT22;10902;48.158;8.634;2024-03-29T13:50:28;26.50;91.70
21481;DHT22;10902;48.158;8.634;2024-03-29T13:53:13;26.80;92.90
21481;DHT22;10902;48.158;8.634;2024-03-29T13:56:01;26.30;93.00
21481;DHT22;10902;48.158;8.634;2024-03-29T13:58:48;26.00;93.50
21481;DHT22;10902;48.158;8.634;2024-03-29T14:01:34;26.40;93.70
21481;DHT22;10902;48.158;8.634;2024-03-29T14:04:19;25.90;94.10
21481;DHT22;10902;48.158;8.634;2024-03-29T14:07:05;24.80;92.50
21481;DHT22;10902;48.158;8.634;2024-03-29T14:09:54;24.10;94.70
21481;DHT22;10902;48.158;8.634;2024-03-29T14:12:39;24.00;95.30
21481;DHT22;10902;48.158;8.634;2024-03-29T14:15:26;23.50;95.30
21481;DHT22;10902;48.158;8.634;2024-03-29T14:18:12;23.80;95.40
21481;DHT22;10902;48.158;8.634;2024-03-29T14:20:59;23.70;95.70
21481;DHT22;10902;48.158;8.634;2024-03-29T14:23:44;23.30;96.00
21481;DHT22;10902;48.158;8.634;2024-03-29T14:26:30;23.00;95.80
21481;DHT22;10902;48.158;8.634;2024-03-29T14:29:15;22.90;96.20
21481;DHT22;10902;48.158;8.634;2024-03-29T14:32:03;22.70;95.80
21481;DHT22;10902;48.158;8.634;2024-03-29T14:34:49;22.30;95.20
21481;DHT22;10902;48.158;8.634;2024-03-29T14:37:34;22.20;95.10
21481;DHT22;10902;48.158;8.634;2024-03-29T14:40:20;23.10;94.50
21481;DHT22;10902;48.158;8.634;2024-03-29T14:43:06;23.70;94.20
21481;DHT22;10902;48.158;8.634;2024-03-29T14:45:51;23.40;94.60
21481;DHT22;10902;48.158;8.634;2024-03-29T14:48:37;23.10;95.30
21481;DHT22;10902;48.158;8.634;2024-03-29T14:51:23;23.00;94.20
21481;DHT22;10902;48.158;8.634;2024-03-29T14:54:09;22.60;94.10
21481;DHT22;10902;48.158;8.634;2024-03-29T14:56:55;22.20;95.00
21481;DHT22;10902;48.158;8.634;2024-03-29T14:59:41;22.80;94.40
21481;DHT22;10902;48.158;8.634;2024-03-29T15:02:27;23.00;94.60
21481;DHT22;10902;48.158;8.634;2024-03-29T15:05:12;22.60;94.50
21481;DHT22;10902;48.158;8.634;2024-03-29T15:07:58;22.10;94.30
21481;DHT22;10902;48.158;8.634;2024-03-29T15:10:43;21.60;95.10
21481;DHT22;10902;48.158;8.634;2024-03-29T15:13:29;21.50;95.40
21481;DHT22;10902;48.158;8.634;2024-03-29T15:16:15;21.20;95.90
21481;DHT22;10902;48.158;8.634;2024-03-29T15:19:00;20.70;96.20
21481;DHT22;10902;48.158;8.634;2024-03-29T15:21:47;20.60;96.70
21481;DHT22;10902;48.158;8.634;2024-03-29T15:24:34;20.20;97.30
21481;DHT22;10902;48.158;8.634;2024-03-29T15:27:19;20.10;97.30
21481;DHT22;10902;48.158;8.634;2024-03-29T15:30:40;20.10;97.70
21481;DHT22;10902;48.158;8.634;2024-03-29T15:33:31;19.90;98.50
21481;DHT22;10902;48.158;8.634;2024-03-29T15:36:17;19.90;98.90
21481;DHT22;10902;48.158;8.634;2024-03-29T15:39:04;19.40;99.70
21481;DHT22;10902;48.158;8.634;2024-03-29T15:41:50;19.10;99.90
21481;DHT22;10902;48.158;8.634;2024-03-29T15:44:36;18.50;99.90
21481;DHT22;10902;48.158;8.634;2024-03-29T15:47:21;17.90;99.90
21481;DHT22;10902;48.158;8.634;2024-03-29T15:50:07;17.90;99.90
21481;DHT22;10902;48.158;8.634;2024-03-29T15:52:53;17.90;99.90
21481;DHT22;10902;48.158;8.634;2024-03-29T15:55:39;17.80;99.90
21481;DHT22;10902;48.158;8.634;2024-03-29T15:58:24;17.50;99.90
21481;DHT22;10902;48.158;8.634;2024-03-29T16:01:10;17.00;99.90
21481;DHT22;10902;48.158;8.634;2024-03-29T16:03:56;16.70;99.90
21481;DHT22;10902;48.158;8.634;2024-03-29T16:06:41;16.60;99.90
21481;DHT22;10902;48.158;8.634;2024-03-29T16:09:27;16.50;99.90
21481;DHT22;10902;48.158;8.634;2024-03-29T16:12:14;16.40;99.90
21481;DHT22;10902;48.158;8.634;2024-03-29T16:15:00;16.30;99.90
21481;DHT22;10902;48.158;8.634;2024-03-29T16:17:45;16.20;99.90
21481;DHT22;10902;48.158;8.634;2024-03-29T16:20:31;16.30;99.90
21481;DHT22;10902;48.158;8.634;2024-03-29T16:23:17;16.30;99.90
21481;DHT22;10902;48.158;8.634;2024-03-29T16:26:02;16.20;99.90
21481;DHT22;10902;48.158;8.634;2024-03-29T16:28:48;16.00;99.90
21481;DHT22;10902;48.158;8.634;2024-03-29T16:31:37;15.80;99.90
21481;DHT22;10902;48.158;8.634;2024-03-29T16:34:22;15.80;99.90
21481;DHT22;10902;48.158;8.634;2024-03-29T16:37:08;15.80;99.90
21481;DHT22;10902;48.158;8.634;2024-03-29T16:39:53;15.70;99.90
21481;DHT22;10902;48.158;8.634;2024-03-29T16:42:39;15.60;99.90
21481;DHT22;10902;48.158;8.634;2024-03-29T16:45:25;15.50;99.90
21481;DHT22;10902;48.158;8.634;2024-03-29T16:48:10;15.50;99.90
21481;DHT22;10902;48.158;8.634;2024-03-29T16:50:56;15.40;99.90
21481;DHT22;10902;48.158;8.634;2024-03-29T16:53:41;15.30;99.90
21481;DHT22;10902;48.158;8.634;2024-03-29T16:56:28;15.20;99.90
21481;DHT22;10902;48.158;8.634;2024-03-29T16:59:13;15.10;99.90
21481;DHT22;10902;48.158;8.634;2024-03-29T17:01:59;15.00;99.90
21481;DHT22;10902;48.158;8.634;2024-03-29T17:04:45;14.80;99.90
21481;DHT22;10902;48.158;8.634;2024-03-29T17:07:32;14.70;99.90
21481;DHT22;10902;48.158;8.634;2024-03-29T17:10:18;14.60;99.90
21481;DHT22;10902;48.158;8.634;2024-03-29T17:13:03;14.60;99.90
21481;DHT22;10902;48.158;8.634;2024-03-29T17:15:49;14.50;99.90
21481;DHT22;10902;48.158;8.634;2024-03-29T17:18:35;14.30;99.90
21481;DHT22;10902;48.158;8.634;2024-03-29T17:21:20;14.30;99.90
21481;DHT22;10902;48.158;8.634;2024-03-29T17:24:06;14.10;99.90
21481;DHT22;10902;48.158;8.634;2024-03-29T17:26:53;14.10;99.90
21481;DHT22;10902;48.158;8.634;2024-03-29T17:29:39;14.00;99.90
21481;DHT22;10902;48.158;8.634;2024-03-29T17:32:25;13.90;99.90
21481;DHT22;10902;48.158;8.634;2024-03-29T17:35:10;13.80;99.90
21481;DHT22;10902;48.158;8.634;2024-03-29T17:37:56;13.70;99.90
21481;DHT22;10902;48.158;8.634;2024-03-29T17:40:42;13.60;99.90